createdAt,value
2019-02-03T00:00:10.281Z,32.50
2019-02-03T00:01:10.476Z,30.90
2019-02-03T00:02:10.685Z,32.00
2019-02-03T00:03:10.972Z,31.20
2019-02-03T00:04:11.174Z,29.50
2019-02-03T00:05:11.265Z,30.90
2019-02-03T00:06:11.477Z,30.70
2019-02-03T00:07:11.737Z,29.30
2019-02-03T00:08:11.829Z,30.70
2019-02-03T00:09:12.007Z,32.50
2019-02-03T00:10:12.202Z,32.40
2019-02-03T00:11:12.437Z,32.50
2019-02-03T00:12:12.513Z,32.90
2019-02-03T00:13:12.756Z,31.40
2019-02-03T00:14:12.897Z,32.10
2019-02-03T00:15:12.960Z,31.70
2019-02-03T00:16:13.158Z,32.60
2019-02-03T00:17:13.343Z,31.80
2019-02-03T00:18:13.538Z,31.80
2019-02-03T00:19:13.721Z,32.40
2019-02-03T00:20:14.010Z,32.30
2019-02-03T00:21:14.187Z,31.10
2019-02-03T00:22:14.281Z,32.40
2019-02-03T00:23:14.565Z,33.00
2019-02-03T00:24:14.664Z,33.00
2019-02-03T00:25:14.760Z,32.30
2019-02-03T00:26:17.684Z,32.80
2019-02-03T00:27:15.061Z,33.50
2019-02-03T00:28:15.139Z,32.90
2019-02-03T00:29:15.339Z,34.90
2019-02-03T00:30:15.536Z,35.00
2019-02-03T00:31:15.736Z,34.40
2019-02-03T00:32:15.948Z,34.60
2019-02-03T00:33:16.144Z,35.50
2019-02-03T00:34:16.381Z,34.80
2019-02-03T00:35:16.594Z,35.30
2019-02-03T00:36:16.709Z,36.50
2019-02-03T00:37:18.203Z,37.60
2019-02-03T00:38:22.931Z,38.10
2019-02-03T00:39:17.354Z,38.20
2019-02-03T00:40:17.522Z,37.80
2019-02-03T00:41:17.711Z,36.90
2019-02-03T00:42:17.954Z,36.80
2019-02-03T00:43:18.041Z,39.30
2019-02-03T00:44:18.681Z,39.30
2019-02-03T00:45:18.501Z,39.80
2019-02-03T00:46:18.673Z,42.70
2019-02-03T00:47:18.769Z,41.70
2019-02-03T00:48:19.058Z,41.40
2019-02-03T00:49:19.130Z,41.80
2019-02-03T00:50:19.319Z,43.50
2019-02-03T00:51:19.531Z,42.70
2019-02-03T00:52:19.729Z,43.70
2019-02-03T00:53:19.928Z,43.60
2019-02-03T00:54:20.131Z,43.50
2019-02-03T00:55:20.282Z,47.10
2019-02-03T00:56:20.354Z,44.40
2019-02-03T00:57:20.602Z,42.40
2019-02-03T00:58:20.710Z,44.40
2019-02-03T00:59:20.773Z,44.10
2019-02-03T01:00:20.997Z,44.10
2019-02-03T01:01:21.072Z,48.80
2019-02-03T01:02:21.300Z,48.00
2019-02-03T01:03:21.373Z,45.90
2019-02-03T01:04:21.581Z,49.30
2019-02-03T01:05:21.794Z,42.10
2019-02-03T01:06:21.985Z,46.40
2019-02-03T01:07:27.576Z,48.00
2019-02-03T01:08:22.296Z,46.40
2019-02-03T01:09:22.516Z,46.00
2019-02-03T01:10:22.724Z,46.90
2019-02-03T01:11:22.945Z,45.80
2019-02-03T01:12:23.026Z,44.70
2019-02-03T01:13:23.254Z,46.10
2019-02-03T01:14:23.307Z,45.90
2019-02-03T01:15:23.517Z,47.80
2019-02-03T01:16:23.727Z,46.60
2019-02-03T01:17:23.983Z,42.90
2019-02-03T01:18:24.082Z,46.10
2019-02-03T01:19:24.231Z,43.70
2019-02-03T01:20:24.312Z,43.00
2019-02-03T01:21:24.628Z,45.00
2019-02-03T01:22:24.723Z,48.00
2019-02-03T01:23:24.782Z,46.30
2019-02-03T01:24:24.977Z,44.70
2019-02-03T01:25:25.196Z,46.80
2019-02-03T01:26:25.263Z,43.90
2019-02-03T01:27:25.492Z,45.90
2019-02-03T01:28:25.672Z,48.10
2019-02-03T01:29:25.886Z,48.40
2019-02-03T01:30:26.063Z,44.90
2019-02-03T01:31:26.253Z,46.90
2019-02-03T01:32:26.435Z,44.80
2019-02-03T01:33:26.633Z,45.70
2019-02-03T01:34:26.834Z,47.10
2019-02-03T01:35:27.018Z,46.90
2019-02-03T01:36:27.198Z,45.40
2019-02-03T01:37:38.884Z,47.60
2019-02-03T01:38:27.615Z,47.80
2019-02-03T01:39:27.822Z,46.00
2019-02-03T01:40:28.023Z,47.30
2019-02-03T01:41:28.234Z,50.90
2019-02-03T01:42:28.464Z,51.50
2019-02-03T01:43:28.523Z,51.40
2019-02-03T01:44:28.708Z,52.80
2019-02-03T01:45:28.841Z,54.10
2019-02-03T01:46:28.960Z,51.00
2019-02-03T01:47:29.041Z,53.60
2019-02-03T01:48:29.224Z,55.70
2019-02-03T01:49:29.454Z,52.10
2019-02-03T01:50:29.656Z,59.80
2019-02-03T01:51:29.676Z,54.30
2019-02-03T01:52:29.857Z,56.90
2019-02-03T01:53:30.059Z,55.40
2019-02-03T01:54:30.243Z,62.20
2019-02-03T01:55:30.466Z,59.50
2019-02-03T01:56:30.686Z,58.50
2019-02-03T01:57:30.770Z,61.20
2019-02-03T01:58:31.054Z,57.30
2019-02-03T01:59:31.138Z,62.90
2019-02-03T02:00:31.346Z,64.20
2019-02-03T02:01:31.546Z,67.20
2019-02-03T02:02:31.738Z,60.80
2019-02-03T02:03:31.926Z,63.50
2019-02-03T02:04:32.129Z,67.00
2019-02-03T02:05:32.308Z,65.90
2019-02-03T02:06:32.516Z,62.60
2019-02-03T02:07:32.718Z,64.70
2019-02-03T02:08:32.941Z,65.60
2019-02-03T02:09:33.158Z,64.50
2019-02-03T02:10:33.354Z,64.40
2019-02-03T02:11:33.442Z,67.10
2019-02-03T02:12:33.662Z,63.70
2019-02-03T02:13:33.858Z,66.10
2019-02-03T02:14:33.913Z,65.00
2019-02-03T02:15:34.104Z,61.40
2019-02-03T02:16:34.213Z,56.20
2019-02-03T02:17:34.478Z,58.50
2019-02-03T02:18:34.533Z,59.00
2019-02-03T02:19:34.736Z,56.20
2019-02-03T02:20:34.850Z,58.20
2019-02-03T02:21:35.062Z,56.90
2019-02-03T02:22:35.274Z,56.60
2019-02-03T02:23:35.454Z,56.80
2019-02-03T02:24:35.647Z,53.70
2019-02-03T02:25:35.776Z,54.80
2019-02-03T02:26:35.839Z,50.50
2019-02-03T02:27:36.046Z,49.40
2019-02-03T02:28:36.328Z,51.20
2019-02-03T02:29:36.402Z,52.90
2019-02-03T02:30:36.715Z,48.90
2019-02-03T02:31:36.775Z,48.80
2019-02-03T02:32:36.951Z,52.80
2019-02-03T02:33:37.184Z,49.30
2019-02-03T02:34:37.241Z,44.50
2019-02-03T02:35:37.448Z,49.80
2019-02-03T02:36:45.900Z,49.70
2019-02-03T02:37:37.792Z,47.60
2019-02-03T02:38:38.008Z,47.30
2019-02-03T02:39:46.178Z,47.70
2019-02-03T02:40:38.414Z,44.80
2019-02-03T02:41:38.451Z,46.90
2019-02-03T02:42:38.729Z,45.90
2019-02-03T02:43:38.770Z,44.80
2019-02-03T02:44:38.953Z,42.90
2019-02-03T02:45:39.233Z,47.80
2019-02-03T02:46:39.288Z,47.10
2019-02-03T02:47:39.612Z,45.10
2019-02-03T02:48:39.725Z,48.20
2019-02-03T02:49:39.850Z,47.70
2019-02-03T02:50:39.910Z,44.20
2019-02-03T02:51:40.126Z,43.50
2019-02-03T02:52:40.318Z,47.60
2019-02-03T02:53:40.506Z,43.80
2019-02-03T02:54:40.701Z,47.70
2019-02-03T02:55:40.909Z,46.30
2019-02-03T02:56:41.128Z,46.90
2019-02-03T02:57:41.309Z,47.10
2019-02-03T02:58:41.512Z,47.10
2019-02-03T02:59:41.718Z,47.50
2019-02-03T03:00:41.952Z,50.10
2019-02-03T03:01:42.102Z,44.60
2019-02-03T03:02:42.295Z,45.50
2019-02-03T03:03:42.501Z,46.90
2019-02-03T03:04:42.688Z,43.80
2019-02-03T03:05:42.880Z,45.80
2019-02-03T03:06:43.081Z,45.90
2019-02-03T03:07:43.279Z,45.30
2019-02-03T03:08:43.468Z,50.10
2019-02-03T03:09:43.718Z,44.80
2019-02-03T03:10:43.807Z,43.30
2019-02-03T03:11:44.010Z,49.20
2019-02-03T03:12:44.207Z,49.00
2019-02-03T03:13:44.448Z,48.60
2019-02-03T03:14:44.569Z,53.30
2019-02-03T03:15:44.741Z,48.10
2019-02-03T03:16:44.858Z,53.20
2019-02-03T03:17:44.929Z,47.20
2019-02-03T03:18:45.118Z,47.30
2019-02-03T03:19:45.336Z,49.20
2019-02-03T03:20:45.559Z,53.80
2019-02-03T03:21:45.624Z,49.50
2019-02-03T03:22:45.902Z,55.20
2019-02-03T03:23:45.966Z,52.10
2019-02-03T03:24:46.196Z,52.80
2019-02-03T03:25:46.326Z,49.80
2019-02-03T03:26:46.411Z,54.70
2019-02-03T03:27:46.855Z,53.60
2019-02-03T03:28:46.712Z,52.90
2019-02-03T03:29:46.821Z,55.00
2019-02-03T03:30:47.021Z,54.30
2019-02-03T03:31:47.240Z,53.10
2019-02-03T03:32:47.426Z,54.40
2019-02-03T03:33:47.649Z,53.50
2019-02-03T03:34:47.715Z,54.10
2019-02-03T03:35:47.928Z,54.10
2019-02-03T03:36:48.145Z,54.50
2019-02-03T03:37:48.336Z,51.30
2019-02-03T03:38:48.517Z,54.50
2019-02-03T03:39:48.698Z,56.40
2019-02-03T03:40:48.894Z,55.00
2019-02-03T03:41:49.133Z,56.10
2019-02-03T03:42:49.250Z,56.30
2019-02-03T03:43:49.355Z,54.80
2019-02-03T03:44:49.534Z,57.60
2019-02-03T03:45:49.709Z,61.10
2019-02-03T03:46:49.841Z,56.00
2019-02-03T03:47:50.020Z,57.70
2019-02-03T03:48:50.233Z,56.30
2019-02-03T03:49:50.415Z,56.90
2019-02-03T03:50:50.758Z,53.10
2019-02-03T03:51:50.845Z,58.10
2019-02-03T03:52:50.930Z,57.40
2019-02-03T03:53:51.117Z,58.10
2019-02-03T03:54:51.292Z,58.60
2019-02-03T03:55:51.487Z,58.90
2019-02-03T03:56:51.672Z,57.20
2019-02-03T03:57:51.857Z,56.70
2019-02-03T03:58:52.047Z,57.10
2019-02-03T03:59:52.251Z,54.70
2019-02-03T04:00:52.450Z,57.10
2019-02-03T04:01:52.663Z,54.90
2019-02-03T04:02:52.870Z,53.30
2019-02-03T04:03:53.080Z,53.50
2019-02-03T04:04:53.280Z,58.20
2019-02-03T04:05:53.565Z,53.20
2019-02-03T04:06:53.603Z,52.30
2019-02-03T04:07:53.792Z,54.80
2019-02-03T04:08:53.947Z,57.50
2019-02-03T04:09:54.124Z,55.40
2019-02-03T04:10:54.318Z,57.40
2019-02-03T04:11:54.503Z,56.00
2019-02-03T04:12:54.742Z,53.10
2019-02-03T04:13:54.798Z,54.60
2019-02-03T04:14:55.036Z,55.70
2019-02-03T04:15:55.110Z,56.90
2019-02-03T04:16:55.299Z,53.10
2019-02-03T04:17:55.505Z,55.20
2019-02-03T04:18:55.687Z,53.10
2019-02-03T04:19:55.934Z,52.50
2019-02-03T04:20:56.066Z,55.00
2019-02-03T04:21:56.147Z,58.40
2019-02-03T04:22:56.342Z,56.00
2019-02-03T04:23:56.541Z,54.50
2019-02-03T04:24:56.749Z,58.40
2019-02-03T04:25:56.939Z,56.50
2019-02-03T04:26:57.204Z,56.00
2019-02-03T04:27:57.272Z,57.40
2019-02-03T04:28:57.475Z,53.60
2019-02-03T04:29:57.673Z,54.90
2019-02-03T04:30:57.877Z,53.20
2019-02-03T04:31:58.075Z,53.70
2019-02-03T04:32:58.261Z,51.60
2019-02-03T04:33:58.457Z,52.90
2019-02-03T04:34:58.666Z,56.50
2019-02-03T04:35:58.748Z,57.30
2019-02-03T04:36:58.998Z,57.40
2019-02-03T04:37:59.081Z,57.40
2019-02-03T04:38:59.296Z,54.20
2019-02-03T04:39:59.482Z,53.80
2019-02-03T04:40:59.693Z,55.30
2019-02-03T04:41:59.888Z,50.80
2019-02-03T04:43:00.081Z,50.30
2019-02-03T04:44:00.305Z,51.50
2019-02-03T04:45:00.484Z,51.40
2019-02-03T04:46:00.681Z,46.00
2019-02-03T04:47:00.873Z,47.40
2019-02-03T04:48:01.087Z,46.20
2019-02-03T04:49:01.160Z,47.40
2019-02-03T04:50:01.362Z,50.00
2019-02-03T04:51:01.591Z,48.00
2019-02-03T04:52:01.668Z,46.30
2019-02-03T04:53:01.856Z,47.30
2019-02-03T04:54:02.076Z,49.40
2019-02-03T04:55:02.190Z,50.00
2019-02-03T04:56:02.378Z,50.40
2019-02-03T04:57:02.721Z,48.50
2019-02-03T04:58:02.724Z,48.20
2019-02-03T04:59:02.920Z,51.60
2019-02-03T05:00:03.121Z,52.30
2019-02-03T05:01:03.326Z,52.80
2019-02-03T05:02:03.582Z,51.70
2019-02-03T05:03:03.723Z,50.00
2019-02-03T05:04:03.909Z,47.40
2019-02-03T05:05:04.022Z,49.10
2019-02-03T05:06:04.133Z,45.20
2019-02-03T05:07:04.197Z,44.10
2019-02-03T05:08:04.410Z,44.70
2019-02-03T05:09:11.349Z,44.00
2019-02-03T05:10:04.648Z,43.90
2019-02-03T05:11:04.862Z,45.60
2019-02-03T05:12:05.078Z,45.50
2019-02-03T05:13:05.175Z,44.20
2019-02-03T05:14:05.357Z,43.30
2019-02-03T05:15:05.598Z,43.90
2019-02-03T05:16:05.695Z,44.10
2019-02-03T05:17:05.756Z,45.80
2019-02-03T05:18:05.974Z,44.70
2019-02-03T05:19:06.180Z,45.70
2019-02-03T05:20:06.405Z,46.30
2019-02-03T05:21:06.499Z,47.30
2019-02-03T05:22:06.699Z,43.70
2019-02-03T05:23:06.786Z,44.20
2019-02-03T05:24:06.990Z,47.10
2019-02-03T05:25:07.248Z,44.20
2019-02-03T05:26:07.323Z,43.40
2019-02-03T05:27:07.433Z,43.40
2019-02-03T05:28:07.658Z,41.40
2019-02-03T05:29:07.916Z,49.20
2019-02-03T05:30:07.976Z,41.80
2019-02-03T05:31:08.227Z,42.50
2019-02-03T05:32:08.302Z,47.70
2019-02-03T05:33:08.501Z,45.10
2019-02-03T05:34:08.699Z,43.80
2019-02-03T05:35:08.883Z,46.10
2019-02-03T05:36:09.155Z,43.60
2019-02-03T05:37:09.222Z,46.60
2019-02-03T05:38:09.415Z,42.10
2019-02-03T05:39:09.504Z,46.10
2019-02-03T05:40:09.724Z,44.50
2019-02-03T05:41:09.938Z,44.30
2019-02-03T05:42:10.135Z,43.40
2019-02-03T05:43:10.323Z,46.70
2019-02-03T05:44:10.552Z,45.10
2019-02-03T05:45:10.626Z,44.70
2019-02-03T05:46:10.837Z,43.50
2019-02-03T05:47:10.956Z,41.80
2019-02-03T05:48:11.055Z,42.20
2019-02-03T05:49:11.249Z,42.50
2019-02-03T05:50:11.487Z,42.20
2019-02-03T05:51:11.658Z,45.30
2019-02-03T05:52:11.946Z,45.90
2019-02-03T05:53:12.025Z,42.10
2019-02-03T05:54:12.286Z,44.10
2019-02-03T05:55:12.385Z,46.90
2019-02-03T05:56:12.540Z,45.70
2019-02-03T05:57:14.487Z,46.30
2019-02-03T05:58:13.835Z,43.30
2019-02-03T05:59:14.952Z,43.60
2019-02-03T06:00:13.881Z,41.00
2019-02-03T06:01:14.343Z,43.60
2019-02-03T06:02:15.821Z,44.40
2019-02-03T06:03:14.209Z,46.40
2019-02-03T06:04:14.365Z,43.70
2019-02-03T06:05:14.460Z,45.20
2019-02-03T06:06:14.257Z,48.10
2019-02-03T06:07:13.988Z,43.20
2019-02-03T06:08:14.208Z,43.30
2019-02-03T06:09:14.280Z,41.80
2019-02-03T06:10:14.471Z,47.00
2019-02-03T06:11:14.631Z,45.90
2019-02-03T06:12:14.685Z,42.70
2019-02-03T06:13:14.896Z,44.30
2019-02-03T06:14:15.122Z,46.00
2019-02-03T06:15:15.221Z,43.70
2019-02-03T06:16:15.430Z,45.70
2019-02-03T06:17:15.609Z,43.40
2019-02-03T06:18:15.851Z,47.10
2019-02-03T06:19:15.931Z,44.00
2019-02-03T06:20:16.334Z,43.60
2019-02-03T06:21:16.305Z,45.60
2019-02-03T06:22:16.819Z,41.70
2019-02-03T06:23:16.621Z,47.00
2019-02-03T06:24:17.000Z,47.40
2019-02-03T06:25:16.862Z,45.50
2019-02-03T06:26:17.017Z,44.70
2019-02-03T06:27:17.260Z,42.10
2019-02-03T06:28:17.329Z,45.80
2019-02-03T06:29:17.558Z,41.70
2019-02-03T06:30:17.797Z,39.40
2019-02-03T06:31:17.907Z,43.50
2019-02-03T06:32:17.984Z,44.00
2019-02-03T06:33:18.183Z,43.80
2019-02-03T06:34:18.384Z,40.80
2019-02-03T06:35:18.577Z,43.60
2019-02-03T06:36:18.813Z,44.70
2019-02-03T06:37:19.080Z,43.60
2019-02-03T06:38:19.013Z,42.30
2019-02-03T06:39:19.242Z,43.30
2019-02-03T06:40:19.315Z,41.80
2019-02-03T06:41:19.403Z,46.50
2019-02-03T06:42:19.629Z,45.40
2019-02-03T06:43:19.732Z,39.80
2019-02-03T06:44:19.929Z,43.30
2019-02-03T06:45:20.185Z,40.50
2019-02-03T06:46:20.285Z,39.90
2019-02-03T06:47:20.485Z,40.80
2019-02-03T06:48:20.676Z,39.40
2019-02-03T06:49:20.900Z,42.10
2019-02-03T06:50:20.963Z,45.70
2019-02-03T06:51:21.171Z,42.60
2019-02-03T06:52:21.385Z,42.20
2019-02-03T06:53:21.596Z,39.60
2019-02-03T06:54:21.808Z,39.60
2019-02-03T06:55:22.008Z,39.30
2019-02-03T06:56:22.196Z,43.80
2019-02-03T06:57:22.414Z,39.90
2019-02-03T06:58:22.469Z,36.40
2019-02-03T06:59:22.712Z,39.70
2019-02-03T07:00:22.824Z,36.30
2019-02-03T07:01:22.871Z,37.20
2019-02-03T07:02:23.071Z,41.30
2019-02-03T07:03:23.272Z,40.70
2019-02-03T07:04:23.447Z,38.10
2019-02-03T07:05:23.648Z,40.30
2019-02-03T07:06:23.865Z,34.10
2019-02-03T07:07:24.069Z,36.90
2019-02-03T07:08:24.247Z,39.50
2019-02-03T07:09:24.514Z,38.30
2019-02-03T07:10:24.577Z,35.60
2019-02-03T07:11:24.800Z,35.60
2019-02-03T07:12:25.074Z,37.90
2019-02-03T07:13:25.217Z,35.30
2019-02-03T07:14:25.352Z,34.40
2019-02-03T07:15:25.436Z,38.10
2019-02-03T07:16:25.529Z,35.40
2019-02-03T07:17:25.718Z,34.30
2019-02-03T07:18:25.897Z,36.90
2019-02-03T07:19:26.134Z,36.50
2019-02-03T07:20:26.273Z,35.30
2019-02-03T07:21:26.473Z,35.80
2019-02-03T07:22:26.672Z,33.20
2019-02-03T07:23:26.881Z,36.50
2019-02-03T07:24:27.117Z,38.70
2019-02-03T07:25:27.179Z,35.50
2019-02-03T07:26:27.355Z,36.20
2019-02-03T07:27:27.562Z,36.10
2019-02-03T07:28:27.772Z,33.60
2019-02-03T07:29:27.963Z,33.40
2019-02-03T07:30:28.107Z,36.30
2019-02-03T07:31:28.223Z,36.30
2019-02-03T07:32:28.295Z,35.20
2019-02-03T07:33:28.489Z,32.90
2019-02-03T07:34:28.714Z,34.60
2019-02-03T07:35:28.896Z,34.00
2019-02-03T07:36:29.079Z,35.60
2019-02-03T07:37:29.273Z,33.40
2019-02-03T07:38:29.506Z,33.30
2019-02-03T07:39:29.577Z,31.60
2019-02-03T07:40:29.771Z,33.70
2019-02-03T07:41:29.832Z,31.60
2019-02-03T07:42:29.942Z,32.20
2019-02-03T07:43:30.121Z,31.40
2019-02-03T07:44:30.321Z,32.40
2019-02-03T07:45:30.559Z,32.60
2019-02-03T07:46:30.671Z,30.20
2019-02-03T07:47:30.772Z,27.40
2019-02-03T07:48:31.569Z,32.10
2019-02-03T07:49:31.047Z,28.70
2019-02-03T07:50:31.637Z,30.20
2019-02-03T07:51:31.437Z,30.60
2019-02-03T07:52:32.819Z,29.50
2019-02-03T07:53:31.708Z,29.90
2019-02-03T07:54:31.904Z,31.90
2019-02-03T07:55:32.101Z,30.40
2019-02-03T07:56:32.375Z,27.40
2019-02-03T07:57:32.785Z,28.40
2019-02-03T07:58:32.484Z,28.10
2019-02-03T07:59:32.568Z,28.00
2019-02-03T08:00:33.025Z,28.60
2019-02-03T08:01:34.148Z,27.80
2019-02-03T08:02:34.803Z,25.50
2019-02-03T08:03:33.370Z,24.90
2019-02-03T08:04:33.140Z,26.90
2019-02-03T08:05:33.357Z,29.10
2019-02-03T08:06:33.647Z,24.80
2019-02-03T08:07:33.712Z,27.20
2019-02-03T08:08:33.937Z,27.00
2019-02-03T08:09:34.108Z,28.80
2019-02-03T08:10:34.179Z,27.10
2019-02-03T08:11:34.543Z,26.00
2019-02-03T08:12:34.562Z,28.30
2019-02-03T08:13:34.868Z,29.90
2019-02-03T08:14:35.157Z,24.20
2019-02-03T08:15:35.147Z,29.00
2019-02-03T08:16:35.079Z,26.50
2019-02-03T08:17:35.958Z,28.40
2019-02-03T08:18:35.823Z,29.70
2019-02-03T08:19:36.423Z,30.00
2019-02-03T08:20:37.026Z,27.20
2019-02-03T08:21:37.048Z,29.70
2019-02-03T08:22:38.568Z,29.10
2019-02-03T08:23:37.166Z,29.30
2019-02-03T08:24:36.491Z,28.80
2019-02-03T08:25:36.658Z,29.70
2019-02-03T08:26:36.823Z,29.90
2019-02-03T08:27:36.870Z,28.50
2019-02-03T08:28:36.959Z,29.90
2019-02-03T08:29:37.232Z,29.10
2019-02-03T08:30:37.400Z,31.00
2019-02-03T08:31:37.531Z,30.30
2019-02-03T08:32:37.577Z,32.30
2019-02-03T08:33:38.681Z,32.50
2019-02-03T08:34:37.813Z,31.70
2019-02-03T08:35:38.242Z,29.90
2019-02-03T08:36:38.586Z,34.30
2019-02-03T08:37:38.718Z,32.50
2019-02-03T08:38:38.538Z,29.00
2019-02-03T08:39:39.320Z,31.10
2019-02-03T08:40:39.746Z,30.10
2019-02-03T08:41:40.128Z,31.30
2019-02-03T08:42:39.084Z,32.10
2019-02-03T08:43:39.186Z,30.80
2019-02-03T08:44:39.295Z,31.00
2019-02-03T08:45:39.612Z,31.20
2019-02-03T08:46:39.474Z,30.90
2019-02-03T08:47:39.684Z,30.50
2019-02-03T08:48:40.232Z,31.60
2019-02-03T08:49:40.100Z,33.50
2019-02-03T08:50:40.209Z,32.70
2019-02-03T08:51:40.284Z,36.40
2019-02-03T08:52:40.538Z,34.00
2019-02-03T08:53:40.603Z,33.80
2019-02-03T08:54:56.818Z,33.30
2019-02-03T08:55:40.980Z,35.00
2019-02-03T08:56:41.103Z,30.10
2019-02-03T08:57:42.857Z,33.80
2019-02-03T08:58:41.373Z,33.00
2019-02-03T08:59:42.119Z,33.70
2019-02-03T09:00:41.778Z,32.60
2019-02-03T09:01:41.922Z,33.20
2019-02-03T09:02:42.176Z,33.90
2019-02-03T09:03:42.302Z,34.30
2019-02-03T09:04:42.365Z,34.10
2019-02-03T09:05:42.593Z,32.30
2019-02-03T09:06:42.663Z,32.90
2019-02-03T09:07:42.989Z,34.60
2019-02-03T09:08:43.068Z,35.40
2019-02-03T09:09:43.148Z,31.70
2019-02-03T09:10:48.485Z,33.90
2019-02-03T09:11:43.555Z,34.40
2019-02-03T09:12:43.984Z,33.20
2019-02-03T09:13:43.973Z,34.60
2019-02-03T09:14:44.125Z,32.30
2019-02-03T09:15:44.185Z,33.10
2019-02-03T09:16:44.468Z,34.30
2019-02-03T09:17:44.521Z,34.20
2019-02-03T09:18:44.791Z,33.20
2019-02-03T09:19:44.932Z,35.40
2019-02-03T09:20:48.000Z,33.40
2019-02-03T09:21:45.321Z,34.40
2019-02-03T09:22:45.534Z,34.10
2019-02-03T09:23:45.852Z,31.70
2019-02-03T09:24:45.925Z,32.80
2019-02-03T09:25:46.530Z,33.00
2019-02-03T09:26:46.271Z,30.60
2019-02-03T09:27:46.514Z,32.40
2019-02-03T09:28:46.590Z,32.30
2019-02-03T09:29:46.860Z,31.70
2019-02-03T09:30:47.009Z,32.00
2019-02-03T09:31:47.060Z,32.00
2019-02-03T09:32:47.289Z,34.50
2019-02-03T09:33:47.620Z,30.10
2019-02-03T09:34:47.630Z,29.40
2019-02-03T09:35:47.703Z,27.90
2019-02-03T09:36:47.789Z,31.00
2019-02-03T09:37:48.080Z,29.60
2019-02-03T09:38:48.073Z,27.70
2019-02-03T09:39:48.341Z,28.10
2019-02-03T09:40:59.472Z,28.80
2019-02-03T09:41:48.536Z,29.90
2019-02-03T09:42:48.798Z,26.90
2019-02-03T09:43:48.990Z,30.10
2019-02-03T09:44:49.253Z,26.40
2019-02-03T09:45:49.311Z,24.00
2019-02-03T09:46:49.409Z,26.70
2019-02-03T09:47:49.474Z,26.80
2019-02-03T09:48:49.682Z,25.80
2019-02-03T09:49:49.869Z,26.20
2019-02-03T09:50:50.195Z,23.50
2019-02-03T09:51:50.394Z,22.40
2019-02-03T09:52:50.743Z,23.50
2019-02-03T09:53:50.627Z,21.70
2019-02-03T09:54:50.707Z,23.40
2019-02-03T09:55:50.902Z,23.30
2019-02-03T09:56:51.285Z,23.80
2019-02-03T09:57:51.302Z,22.80
2019-02-03T09:58:51.346Z,23.30
2019-02-03T09:59:51.482Z,22.90
2019-02-03T10:00:51.547Z,23.00
2019-02-03T10:01:51.751Z,23.90
2019-02-03T10:02:51.998Z,20.40
2019-02-03T10:03:52.043Z,23.20
2019-02-03T10:04:52.386Z,23.40
2019-02-03T10:05:52.431Z,25.50
2019-02-03T10:06:52.500Z,24.40
2019-02-03T10:07:52.689Z,22.70
2019-02-03T10:08:52.950Z,27.70
2019-02-03T10:09:53.071Z,22.20
2019-02-03T10:10:53.289Z,23.50
2019-02-03T10:11:53.300Z,21.70
2019-02-03T10:12:53.379Z,22.10
2019-02-03T10:13:53.561Z,24.90
2019-02-03T10:14:53.770Z,21.40
2019-02-03T10:15:54.615Z,23.40
2019-02-03T10:16:55.102Z,22.50
2019-02-03T10:17:56.696Z,20.20
2019-02-03T10:18:55.890Z,21.20
2019-02-03T10:19:54.637Z,21.30
2019-02-03T10:20:54.737Z,21.00
2019-02-03T10:21:54.823Z,22.50
2019-02-03T10:22:55.097Z,20.00
2019-02-03T10:23:55.202Z,19.50
2019-02-03T10:24:55.384Z,19.90
2019-02-03T10:25:55.569Z,20.40
2019-02-03T10:26:55.728Z,22.10
2019-02-03T10:27:55.910Z,21.30
2019-02-03T10:28:55.845Z,19.20
2019-02-03T10:29:56.018Z,20.90
2019-02-03T10:30:56.157Z,22.40
2019-02-03T10:31:56.289Z,21.30
2019-02-03T10:32:56.430Z,20.80
2019-02-03T10:33:56.551Z,19.70
2019-02-03T10:34:56.667Z,21.00
2019-02-03T10:35:56.785Z,21.80
2019-02-03T10:36:56.915Z,21.80
2019-02-03T10:37:56.988Z,19.80
2019-02-03T10:38:57.215Z,20.80
2019-02-03T10:39:57.400Z,22.20
2019-02-03T10:40:57.695Z,21.00
2019-02-03T10:42:06.041Z,20.00
2019-02-03T10:43:06.169Z,18.80
2019-02-03T10:43:58.056Z,20.30
2019-02-03T10:44:58.427Z,19.40
2019-02-03T10:46:07.261Z,19.40
2019-02-03T10:46:58.587Z,17.50
2019-02-03T10:47:58.902Z,19.80
2019-02-03T10:48:59.027Z,17.20
2019-02-03T10:50:01.406Z,19.10
2019-02-03T10:50:59.216Z,17.70
2019-02-03T10:51:59.390Z,19.00
2019-02-03T10:52:59.624Z,16.80
2019-02-03T10:53:59.786Z,18.60
2019-02-03T10:54:59.916Z,18.50
2019-02-03T10:55:59.984Z,19.10
2019-02-03T10:57:00.091Z,18.60
2019-02-03T10:58:00.338Z,19.90
2019-02-03T10:59:00.399Z,19.80
2019-02-03T11:00:00.579Z,18.90
2019-02-03T11:01:00.806Z,20.00
2019-02-03T11:02:00.934Z,20.20
2019-02-03T11:03:01.004Z,19.50
2019-02-03T11:04:01.257Z,18.00
2019-02-03T11:05:01.413Z,19.10
2019-02-03T11:06:01.633Z,19.90
2019-02-03T11:07:01.711Z,19.40
2019-02-03T11:08:01.923Z,20.40
2019-02-03T11:09:02.110Z,19.20
2019-02-03T11:10:02.484Z,20.60
2019-02-03T11:11:02.469Z,20.00
2019-02-03T11:12:02.528Z,19.20
2019-02-03T11:13:02.745Z,18.40
2019-02-03T11:14:02.910Z,21.20
2019-02-03T11:15:03.008Z,20.90
2019-02-03T11:16:03.111Z,20.60
2019-02-03T11:17:03.176Z,22.50
2019-02-03T11:18:03.349Z,19.50
2019-02-03T11:19:03.617Z,19.90
2019-02-03T11:20:03.717Z,23.50
2019-02-03T11:21:03.789Z,22.50
2019-02-03T11:22:03.978Z,20.40
2019-02-03T11:23:04.199Z,21.10
2019-02-03T11:24:04.540Z,21.20
2019-02-03T11:25:04.613Z,20.80
2019-02-03T11:26:04.834Z,20.80
2019-02-03T11:27:04.960Z,20.20
2019-02-03T11:28:05.024Z,20.90
2019-02-03T11:29:05.228Z,21.80
2019-02-03T11:30:05.430Z,21.50
2019-02-03T11:31:05.720Z,19.60
2019-02-03T11:32:05.820Z,22.10
2019-02-03T11:33:09.601Z,19.80
2019-02-03T11:34:06.062Z,20.30
2019-02-03T11:35:06.141Z,21.40
2019-02-03T11:36:06.348Z,20.80
2019-02-03T11:37:06.536Z,20.20
2019-02-03T11:38:06.786Z,20.00
2019-02-03T11:39:06.903Z,20.00
2019-02-03T11:40:07.006Z,18.80
2019-02-03T11:41:07.266Z,19.30
2019-02-03T11:42:07.438Z,15.50
2019-02-03T11:43:07.577Z,19.50
2019-02-03T11:44:07.695Z,18.70
2019-02-03T11:45:07.803Z,19.50
2019-02-03T11:46:07.923Z,18.30
2019-02-03T11:47:07.997Z,21.20
2019-02-03T11:48:08.114Z,19.70
2019-02-03T11:49:08.235Z,18.50
2019-02-03T11:50:08.402Z,18.10
2019-02-03T11:51:08.479Z,18.80
2019-02-03T11:52:08.695Z,18.70
2019-02-03T11:53:08.803Z,18.00
2019-02-03T11:54:08.899Z,18.00
2019-02-03T11:55:09.094Z,18.40
2019-02-03T11:56:09.449Z,17.00
2019-02-03T11:57:09.421Z,15.60
2019-02-03T11:58:09.639Z,16.70
2019-02-03T11:59:09.845Z,16.80
2019-02-03T12:00:09.857Z,16.30
2019-02-03T12:01:10.046Z,15.80
2019-02-03T12:02:10.272Z,16.70
2019-02-03T12:03:10.330Z,16.40
2019-02-03T12:04:10.511Z,17.40
2019-02-03T12:05:10.704Z,17.10
2019-02-03T12:06:10.915Z,17.60
2019-02-03T12:07:11.115Z,17.70
2019-02-03T12:08:11.316Z,17.20
2019-02-03T12:09:11.564Z,16.30
2019-02-03T12:10:11.649Z,15.70
2019-02-03T12:11:11.898Z,15.90
2019-02-03T12:12:12.026Z,16.60
2019-02-03T12:13:12.119Z,17.40
2019-02-03T12:14:12.185Z,15.40
2019-02-03T12:15:12.372Z,17.10
2019-02-03T12:16:12.551Z,16.80
2019-02-03T12:17:12.831Z,17.40
2019-02-03T12:18:12.961Z,14.10
2019-02-03T12:19:13.237Z,15.30
2019-02-03T12:20:13.371Z,14.40
2019-02-03T12:21:13.451Z,17.40
2019-02-03T12:22:13.513Z,15.10
2019-02-03T12:23:13.797Z,16.80
2019-02-03T12:24:13.860Z,16.30
2019-02-03T12:25:14.054Z,15.90
2019-02-03T12:26:14.487Z,16.50
2019-02-03T12:27:14.476Z,17.00
2019-02-03T12:28:14.680Z,16.20
2019-02-03T12:29:14.899Z,15.00
2019-02-03T12:30:15.009Z,16.30
2019-02-03T12:31:15.136Z,18.60
2019-02-03T12:32:15.385Z,16.80
2019-02-03T12:33:15.333Z,15.80
2019-02-03T12:34:15.623Z,17.40
2019-02-03T12:35:15.690Z,17.40
2019-02-03T12:36:15.992Z,17.80
2019-02-03T12:37:15.988Z,17.20
2019-02-03T12:38:16.330Z,18.60
2019-02-03T12:39:16.446Z,15.80
2019-02-03T12:40:16.532Z,17.90
2019-02-03T12:41:17.043Z,17.20
2019-02-03T12:42:16.941Z,18.40
2019-02-03T12:43:16.998Z,16.70
2019-02-03T12:44:17.252Z,16.40
2019-02-03T12:45:17.215Z,16.80
2019-02-03T12:46:17.634Z,14.80
2019-02-03T12:47:19.214Z,17.90
2019-02-03T12:48:17.706Z,16.70
2019-02-03T12:49:17.792Z,16.70
2019-02-03T12:50:18.120Z,17.10
2019-02-03T12:51:19.808Z,14.70
2019-02-03T12:52:19.477Z,15.90
2019-02-03T12:53:19.139Z,17.10
2019-02-03T12:54:19.087Z,14.90